Time;durP1;ratioP1;P1;durP2;ratioP2;P2;SDS_P1;SDS_P2;PMS_P1;PMS_P2;Temp;Humidity;BMP_temperature;BMP_pressure;BME280_temperature;BME280_humidity;BME280_pressure;Samples;Min_cycle;Max_cycle;Signal;HPM_P1;HPM_P2
2022/05/31 00:01:57;;;;;;;1.70;1.00;;;13.30;81.10;;;;;;5110091;28;20028;-77
2022/05/31 00:04:23;;;;;;;1.85;0.85;;;13.30;81.30;;;;;;5106066;28;20047;-74
2022/05/31 00:06:49;;;;;;;2.40;0.82;;;13.30;81.60;;;;;;5111461;28;20038;-74
2022/05/31 00:09:15;;;;;;;2.30;1.10;;;13.30;81.90;;;;;;5110572;28;20403;-74
2022/05/31 00:11:41;;;;;;;2.42;0.98;;;13.30;82.10;;;;;;5097239;28;20031;-75
2022/05/31 00:14:08;;;;;;;1.60;0.90;;;13.20;82.30;;;;;;5092987;28;20213;-75
2022/05/31 00:16:34;;;;;;;3.17;0.88;;;13.20;82.60;;;;;;5111881;28;20032;-74
2022/05/31 00:19:00;;;;;;;1.50;0.90;;;13.20;82.80;;;;;;5100482;28;20059;-74
2022/05/31 00:21:36;;;;;;;0.83;0.73;;;13.20;83.10;;;;;;5111372;28;20066;-74
2022/05/31 00:24:05;;;;;;;1.30;1.10;;;13.10;83.70;;;;;;5108658;28;20024;-74
2022/05/31 00:26:30;;;;;;;1.15;0.98;;;13.10;84.10;;;;;;5095900;28;20031;-75
2022/05/31 00:28:56;;;;;;;1.85;0.70;;;13.10;84.30;;;;;;5115007;28;20034;-74
2022/05/31 00:31:21;;;;;;;1.42;0.80;;;13.10;84.60;;;;;;5097365;28;20468;-73
2022/05/31 00:33:47;;;;;;;2.17;0.90;;;13.10;84.50;;;;;;5097131;28;20093;-77
2022/05/31 00:36:13;;;;;;;2.00;0.90;;;13.10;84.80;;;;;;5096902;28;20154;-74
2022/05/31 00:38:38;;;;;;;2.00;0.80;;;13.10;84.80;;;;;;5097583;28;20035;-74
2022/05/31 00:41:24;;;;;;;1.42;1.05;;;13.00;85.10;;;;;;5096730;28;20446;-73
2022/05/31 00:44:02;;;;;;;1.27;0.90;;;13.00;86.00;;;;;;5096517;28;20038;-74
2022/05/31 00:46:42;;;;;;;1.45;0.90;;;13.00;86.00;;;;;;5097324;28;20026;-74
2022/05/31 00:49:10;;;;;;;3.70;1.00;;;12.90;86.50;;;;;;5114759;28;20339;-74
2022/05/31 00:51:44;;;;;;;1.27;0.90;;;12.90;86.50;;;;;;5097110;28;20028;-74
2022/05/31 00:54:14;;;;;;;1.85;0.82;;;12.90;86.80;;;;;;5096279;28;20672;-74
2022/05/31 00:56:40;;;;;;;2.90;1.10;;;12.80;87.20;;;;;;5115479;28;20024;-73
2022/05/31 00:59:09;;;;;;;2.88;1.00;;;12.80;87.40;;;;;;5096587;28;20034;-74
2022/05/31 01:01:39;;;;;;;0.82;0.80;;;12.80;87.90;;;;;;5097034;28;20055;-74
2022/05/31 01:04:05;;;;;;;1.85;1.10;;;12.70;88.20;;;;;;5096298;28;20052;-74
2022/05/31 01:06:32;;;;;;;2.17;1.20;;;12.60;88.60;;;;;;5097136;28;20382;-74
2022/05/31 01:08:59;;;;;;;1.67;1.00;;;12.60;89.00;;;;;;5096420;28;20024;-74
2022/05/31 01:11:28;;;;;;;1.45;1.23;;;12.50;89.40;;;;;;5096927;28;20027;-73
2022/05/31 01:13:55;;;;;;;2.53;0.95;;;12.60;89.70;;;;;;5096532;28;20047;-74
2022/05/31 01:16:21;;;;;;;1.25;1.10;;;12.60;90.00;;;;;;5096835;28;20552;-75
2022/05/31 01:18:47;;;;;;;1.48;0.93;;;12.60;90.10;;;;;;5096900;28;20034;-75
2022/05/31 01:21:13;;;;;;;2.92;1.30;;;12.50;90.10;;;;;;5114443;28;20099;-75
2022/05/31 01:23:58;;;;;;;1.52;1.00;;;12.50;90.20;;;;;;5096771;28;20039;-75
2022/05/31 01:26:29;;;;;;;1.30;0.85;;;12.50;90.60;;;;;;5096504;28;20070;-75
2022/05/31 01:29:20;;;;;;;1.30;1.20;;;12.40;90.60;;;;;;5114270;28;20023;-76
2022/05/31 01:31:54;;;;;;;2.88;1.00;;;12.50;90.90;;;;;;5096696;28;20028;-75
2022/05/31 01:34:41;;;;;;;1.67;0.90;;;12.50;90.80;;;;;;5096684;28;20027;-75
2022/05/31 01:37:07;;;;;;;1.17;0.90;;;12.50;90.90;;;;;;5095773;28;20027;-75
2022/05/31 01:39:45;;;;;;;1.52;1.10;;;12.50;90.80;;;;;;5096616;28;20020;-74
2022/05/31 01:42:34;;;;;;;1.48;1.08;;;12.50;90.80;;;;;;5114166;28;20146;-75
2022/05/31 01:45:08;;;;;;;2.58;1.10;;;12.50;91.10;;;;;;5095811;28;20469;-74
2022/05/31 01:47:36;;;;;;;1.60;1.05;;;12.40;90.80;;;;;;5095815;28;20122;-74
2022/05/31 01:50:07;;;;;;;1.73;0.93;;;12.50;90.90;;;;;;5095304;28;20050;-75
2022/05/31 01:52:34;;;;;;;2.42;1.00;;;12.40;91.00;;;;;;5096271;28;20141;-74
2022/05/31 01:55:01;;;;;;;3.30;1.30;;;12.40;91.00;;;;;;5095498;28;20039;-75
2022/05/31 01:57:30;;;;;;;2.35;1.08;;;12.40;91.10;;;;;;5096296;28;20114;-75
2022/05/31 02:00:04;;;;;;;2.45;1.10;;;12.40;91.30;;;;;;5095442;28;20499;-75
2022/05/31 02:02:30;;;;;;;6.63;1.10;;;12.40;91.20;;;;;;5096057;28;20039;-74
2022/05/31 02:04:56;;;;;;;1.02;0.65;;;12.40;91.20;;;;;;5095050;28;20051;-75
2022/05/31 02:07:25;;;;;;;2.10;1.17;;;12.40;91.20;;;;;;5095764;28;20024;-75
2022/05/31 02:09:52;;;;;;;2.05;1.08;;;12.30;91.30;;;;;;5095781;28;20020;-74
2022/05/31 02:12:19;;;;;;;2.15;0.98;;;12.30;91.30;;;;;;5095450;28;20027;-75
2022/05/31 02:14:45;;;;;;;3.17;1.08;;;12.30;91.40;;;;;;5095631;28;20119;-74
2022/05/31 02:17:12;;;;;;;2.33;1.40;;;12.30;91.40;;;;;;5112968;28;20118;-75
2022/05/31 02:19:38;;;;;;;2.05;1.00;;;12.30;91.40;;;;;;5095581;28;20054;-75
2022/05/31 02:22:10;;;;;;;2.78;1.13;;;12.40;91.40;;;;;;5094546;28;20067;-75
2022/05/31 02:24:36;;;;;;;1.48;0.70;;;12.40;91.40;;;;;;5113622;28;20059;-75
2022/05/31 02:27:02;;;;;;;2.80;0.88;;;12.40;91.30;;;;;;5094658;28;20024;-75
2022/05/31 02:29:31;;;;;;;1.55;0.90;;;12.40;91.40;;;;;;5095376;28;20023;-75
2022/05/31 02:31:58;;;;;;;1.77;1.05;;;12.40;91.30;;;;;;5094771;28;20031;-76
2022/05/31 02:34:31;;;;;;;2.08;1.05;;;12.30;91.40;;;;;;5095483;28;20357;-74
2022/05/31 02:36:57;;;;;;;2.45;1.10;;;12.30;91.50;;;;;;5094832;28;20027;-76
2022/05/31 02:39:23;;;;;;;1.60;0.90;;;12.40;91.50;;;;;;5095285;28;20024;-74
2022/05/31 02:41:48;;;;;;;1.13;1.00;;;12.30;91.70;;;;;;5094879;28;20063;-74
2022/05/31 02:44:15;;;;;;;1.10;0.90;;;12.20;91.90;;;;;;5094635;28;20031;-74
2022/05/31 02:46:41;;;;;;;3.33;0.88;;;12.20;91.90;;;;;;5094958;28;20024;-74
2022/05/31 02:49:07;;;;;;;1.38;1.05;;;12.20;91.80;;;;;;5094072;28;20380;-75
2022/05/31 02:51:34;;;;;;;1.67;0.90;;;12.20;91.90;;;;;;5095187;28;20023;-75
2022/05/31 02:54:00;;;;;;;1.52;1.00;;;12.20;92.10;;;;;;5094193;28;20121;-75
2022/05/31 02:56:26;;;;;;;2.97;1.10;;;12.10;92.20;;;;;;5113247;28;20035;-75
2022/05/31 02:58:52;;;;;;;1.83;1.42;;;12.10;92.50;;;;;;5095032;28;20023;-74
2022/05/31 03:01:23;;;;;;;3.20;1.10;;;12.00;92.50;;;;;;5094312;28;20020;-75
2022/05/31 03:03:49;;;;;;;1.35;1.00;;;12.00;92.40;;;;;;5112704;28;20184;-74
2022/05/31 03:06:15;;;;;;;1.23;1.00;;;12.00;92.60;;;;;;5112441;28;20043;-74
2022/05/31 03:08:41;;;;;;;2.03;1.35;;;12.00;92.60;;;;;;5113011;28;20020;-74
2022/05/31 03:11:14;;;;;;;1.60;1.10;;;11.90;92.70;;;;;;5094449;28;20030;-75
2022/05/31 03:13:41;;;;;;;1.67;0.88;;;11.90;93.00;;;;;;5095180;28;20024;-75
2022/05/31 03:16:07;;;;;;;2.45;1.05;;;11.90;93.00;;;;;;5094277;28;20050;-75
2022/05/31 03:18:49;;;;;;;2.10;1.08;;;11.80;93.10;;;;;;5094914;28;20480;-75
2022/05/31 03:21:20;;;;;;;1.50;1.10;;;11.80;93.40;;;;;;5094496;28;20062;-75
2022/05/31 03:23:52;;;;;;;2.17;1.20;;;11.80;93.50;;;;;;5094875;28;20047;-75
2022/05/31 03:26:19;;;;;;;1.25;0.85;;;11.80;93.30;;;;;;5094229;28;20089;-75
2022/05/31 03:28:45;;;;;;;2.97;1.00;;;11.80;93.30;;;;;;5112948;28;20032;-75
2022/05/31 03:31:10;;;;;;;2.22;1.23;;;11.70;93.30;;;;;;5112389;28;20020;-75
2022/05/31 03:33:37;;;;;;;1.15;0.95;;;11.70;93.80;;;;;;5094776;28;20059;-75
2022/05/31 03:36:03;;;;;;;3.30;1.17;;;11.70;93.60;;;;;;5094004;28;20027;-75
2022/05/31 03:38:28;;;;;;;1.75;1.20;;;11.60;93.80;;;;;;5094655;28;20368;-74
2022/05/31 03:40:57;;;;;;;1.58;1.10;;;11.60;93.80;;;;;;5094696;28;20031;-75
2022/05/31 03:43:31;;;;;;;2.50;1.08;;;11.70;93.80;;;;;;5094062;28;20110;-75
2022/05/31 03:45:57;;;;;;;2.17;1.00;;;11.60;93.80;;;;;;5094581;28;20062;-75
2022/05/31 03:48:23;;;;;;;1.40;1.02;;;11.70;93.90;;;;;;5093861;28;20043;-75
2022/05/31 03:51:03;;;;;;;1.38;0.90;;;11.70;93.90;;;;;;5094166;28;20080;-75
2022/05/31 03:53:29;;;;;;;2.03;1.10;;;11.70;94.30;;;;;;5094186;28;20032;-75
2022/05/31 03:55:54;;;;;;;2.47;1.00;;;11.70;93.90;;;;;;5094198;28;20028;-73
2022/05/31 03:58:21;;;;;;;2.22;1.00;;;11.70;94.10;;;;;;5093620;28;20525;-74
2022/05/31 04:00:46;;;;;;;1.40;1.08;;;11.60;94.10;;;;;;5095534;28;20024;-74
2022/05/31 04:03:13;;;;;;;2.83;0.70;;;11.60;94.30;;;;;;5115209;28;20060;-74
2022/05/31 04:05:38;;;;;;;1.63;0.90;;;11.60;94.30;;;;;;5116335;28;20023;-74
2022/05/31 04:08:08;;;;;;;5.10;1.25;;;11.60;94.40;;;;;;5097408;28;20080;-74
2022/05/31 04:10:34;;;;;;;1.08;0.90;;;11.60;94.30;;;;;;5097979;28;20035;-73
2022/05/31 04:13:00;;;;;;;3.38;1.17;;;11.60;94.40;;;;;;5097606;28;20430;-77
2022/05/31 04:15:27;;;;;;;2.63;1.10;;;11.60;94.60;;;;;;5115441;28;20028;-74
2022/05/31 04:17:53;;;;;;;1.65;1.17;;;11.60;94.60;;;;;;5097907;28;20050;-73
2022/05/31 04:20:19;;;;;;;1.60;1.23;;;11.70;94.50;;;;;;5096831;28;20532;-73
2022/05/31 04:22:44;;;;;;;2.72;1.20;;;11.70;94.40;;;;;;5097510;28;20043;-73
2022/05/31 04:25:10;;;;;;;1.70;1.13;;;11.70;94.50;;;;;;5097113;28;20426;-73
2022/05/31 04:27:36;;;;;;;1.60;0.98;;;11.70;94.80;;;;;;5097720;28;20046;-74
2022/05/31 04:30:02;;;;;;;2.08;1.10;;;11.60;94.90;;;;;;5115546;28;20035;-74
2022/05/31 04:32:28;;;;;;;2.08;1.00;;;11.70;95.10;;;;;;5097636;28;20031;-74
2022/05/31 04:34:54;;;;;;;2.00;1.10;;;11.60;95.20;;;;;;5097642;28;20119;-75
2022/05/31 04:37:20;;;;;;;1.13;0.90;;;11.70;95.30;;;;;;5114851;28;20056;-74
2022/05/31 04:39:46;;;;;;;3.00;1.30;;;11.70;95.10;;;;;;5097522;28;20031;-74
2022/05/31 04:42:11;;;;;;;1.17;1.00;;;11.60;95.10;;;;;;5115066;28;20035;-74
2022/05/31 04:44:38;;;;;;;2.35;1.15;;;11.70;95.10;;;;;;5097470;28;20031;-74
2022/05/31 04:47:05;;;;;;;1.80;1.00;;;11.70;95.20;;;;;;5096945;28;20087;-76
2022/05/31 04:49:30;;;;;;;1.70;1.00;;;11.70;95.30;;;;;;5097377;28;20024;-75
2022/05/31 04:51:56;;;;;;;1.42;1.10;;;11.70;95.40;;;;;;5115279;28;20030;-75
2022/05/31 04:54:24;;;;;;;2.58;1.10;;;11.70;95.30;;;;;;5096535;28;20020;-75
2022/05/31 04:56:50;;;;;;;2.03;1.17;;;11.70;95.40;;;;;;5096936;28;20032;-75
2022/05/31 04:59:18;;;;;;;1.58;0.90;;;11.80;95.40;;;;;;5096560;28;20484;-75
2022/05/31 05:01:43;;;;;;;2.50;1.25;;;11.70;95.40;;;;;;5097381;28;20034;-75
2022/05/31 05:04:10;;;;;;;1.52;1.00;;;11.80;95.50;;;;;;5096231;28;20039;-76
2022/05/31 05:06:35;;;;;;;2.65;1.05;;;11.80;95.80;;;;;;5096896;28;20024;-75
2022/05/31 05:09:01;;;;;;;1.73;0.90;;;11.90;95.40;;;;;;5096959;28;20031;-75
2022/05/31 05:11:26;;;;;;;3.17;1.00;;;11.90;95.60;;;;;;5095940;28;20527;-75
2022/05/31 05:13:56;;;;;;;2.00;1.00;;;12.00;95.50;;;;;;5096847;28;20476;-74
2022/05/31 05:16:21;;;;;;;2.83;0.98;;;11.90;95.50;;;;;;5096438;28;20451;-75
2022/05/31 05:18:48;;;;;;;1.63;0.90;;;11.90;95.30;;;;;;5096870;28;20110;-75
2022/05/31 05:21:15;;;;;;;2.55;1.10;;;12.00;95.30;;;;;;5115389;28;20048;-76
2022/05/31 05:23:41;;;;;;;2.72;1.10;;;12.00;95.50;;;;;;5096425;28;20042;-74
2022/05/31 05:26:08;;;;;;;1.40;0.98;;;12.10;95.40;;;;;;5095760;28;20027;-76
2022/05/31 05:31:24;;;;;;;2.13;0.90;;;12.20;95.30;;;;;;5114089;28;20463;-76
2022/05/31 05:33:50;;;;;;;2.08;1.20;;;12.20;95.40;;;;;;5096707;28;20031;-75
2022/05/31 05:36:17;;;;;;;1.92;1.00;;;12.30;95.30;;;;;;5095846;28;20089;-75
2022/05/31 05:38:42;;;;;;;2.70;0.88;;;12.40;95.10;;;;;;5096336;28;20088;-75
2022/05/31 05:41:09;;;;;;;3.25;0.98;;;12.40;95.00;;;;;;5095727;28;20456;-77
2022/05/31 05:43:34;;;;;;;1.75;1.02;;;12.50;95.00;;;;;;5095874;28;20027;-75
2022/05/31 05:46:00;;;;;;;3.85;1.15;;;12.50;95.10;;;;;;5096153;28;20050;-75
2022/05/31 05:48:25;;;;;;;2.70;1.25;;;12.60;94.90;;;;;;5113677;28;20103;-75
2022/05/31 05:50:51;;;;;;;3.80;1.20;;;12.70;94.70;;;;;;5114251;28;20077;-75
2022/05/31 05:53:17;;;;;;;1.83;1.02;;;12.70;94.60;;;;;;5095023;28;20464;-76
2022/05/31 05:55:42;;;;;;;3.03;1.05;;;12.80;94.20;;;;;;5095854;28;20031;-75
2022/05/31 05:58:08;;;;;;;1.88;0.90;;;12.80;93.90;;;;;;5095553;28;20080;-77
2022/05/31 06:00:45;;;;;;;1.83;1.23;;;12.80;93.90;;;;;;5114269;28;20107;-76
2022/05/31 06:03:19;;;;;;;3.13;0.93;;;12.90;93.70;;;;;;5095168;28;20064;-76
2022/05/31 06:05:46;;;;;;;1.60;1.02;;;12.90;93.70;;;;;;5114089;28;20028;-75
2022/05/31 06:08:20;;;;;;;1.55;1.00;;;13.00;93.60;;;;;;5095244;28;20464;-75
2022/05/31 06:11:04;;;;;;;1.90;1.00;;;13.00;93.70;;;;;;5095681;28;20051;-76
2022/05/31 06:14:01;;;;;;;1.88;1.25;;;13.20;93.60;;;;;;5095251;28;20032;-76
2022/05/31 06:16:31;;;;;;;3.38;1.20;;;13.30;92.90;;;;;;5095256;28;20502;-75
2022/05/31 06:19:09;;;;;;;1.85;1.13;;;13.40;92.60;;;;;;5095541;28;20030;-75
2022/05/31 06:21:35;;;;;;;2.20;1.00;;;13.50;92.50;;;;;;5095764;28;20504;-76
2022/05/31 06:24:01;;;;;;;2.75;0.98;;;13.60;92.10;;;;;;5113027;28;20032;-75
2022/05/31 06:26:28;;;;;;;2.75;1.27;;;13.70;91.90;;;;;;5113358;28;20035;-76
2022/05/31 06:28:54;;;;;;;2.42;1.13;;;13.80;91.60;;;;;;5095488;28;20023;-76
2022/05/31 06:31:20;;;;;;;2.85;1.10;;;13.80;91.80;;;;;;5112736;28;20518;-76
2022/05/31 06:33:45;;;;;;;1.88;1.02;;;13.90;92.00;;;;;;5095420;28;20031;-76
2022/05/31 06:36:11;;;;;;;3.75;0.80;;;13.90;92.40;;;;;;5094660;28;20027;-76
2022/05/31 06:38:37;;;;;;;2.13;1.08;;;14.00;92.60;;;;;;5095322;28;20027;-76
2022/05/31 06:41:04;;;;;;;1.50;0.95;;;14.00;92.80;;;;;;5095073;28;20081;-75
2022/05/31 06:43:30;;;;;;;2.55;1.00;;;14.00;92.90;;;;;;5094386;28;20582;-75
2022/05/31 06:45:56;;;;;;;3.35;1.20;;;14.10;92.70;;;;;;5095098;28;20476;-75
2022/05/31 06:48:21;;;;;;;3.25;1.02;;;14.20;92.60;;;;;;5094454;28;20419;-75
2022/05/31 06:50:47;;;;;;;2.17;1.20;;;14.30;92.40;;;;;;5095177;28;20024;-73
2022/05/31 06:58:43;;;;;;;1.80;1.08;;;14.40;92.00;;;;;;5115859;28;20057;-75
2022/05/31 07:01:09;;;;;;;4.72;0.90;;;14.40;91.90;;;;;;5094393;28;20030;-79
2022/05/31 07:03:36;;;;;;;2.10;0.98;;;14.60;91.80;;;;;;5112352;28;20123;-76
2022/05/31 07:06:02;;;;;;;1.88;1.20;;;14.60;91.60;;;;;;5094910;28;20034;-77
2022/05/31 07:08:28;;;;;;;1.50;1.15;;;14.50;91.60;;;;;;5112523;28;20093;-76
2022/05/31 07:10:54;;;;;;;6.30;2.90;;;14.50;91.60;;;;;;5094942;28;20453;-76
2022/05/31 07:13:21;;;;;;;3.55;1.30;;;14.40;91.60;;;;;;5093978;28;20085;-76
2022/05/31 07:15:50;;;;;;;2.47;0.95;;;14.30;91.90;;;;;;5094438;28;20110;-76
2022/05/31 07:18:17;;;;;;;2.20;1.10;;;14.40;92.20;;;;;;5094089;28;20037;-77
2022/05/31 07:20:44;;;;;;;3.13;1.30;;;14.40;92.10;;;;;;5094493;28;20024;-77
2022/05/31 07:23:10;;;;;;;2.83;1.00;;;14.40;92.30;;;;;;5094473;28;20544;-78
2022/05/31 07:25:36;;;;;;;1.20;0.90;;;14.40;92.40;;;;;;5094460;28;20089;-76
2022/05/31 07:28:01;;;;;;;2.25;1.38;;;14.30;92.40;;;;;;5094604;28;20028;-74
2022/05/31 07:30:27;;;;;;;1.98;1.02;;;14.40;92.40;;;;;;5112163;28;20034;-73
2022/05/31 07:32:52;;;;;;;4.57;1.63;;;14.40;92.10;;;;;;5094566;28;20457;-73
2022/05/31 07:35:18;;;;;;;2.38;1.65;;;14.40;92.10;;;;;;5114307;28;20030;-74
2022/05/31 07:37:45;;;;;;;3.72;1.33;;;14.40;92.10;;;;;;5116247;28;20462;-73
2022/05/31 07:40:11;;;;;;;3.00;1.00;;;14.40;92.00;;;;;;5097653;28;20023;-75
2022/05/31 07:42:37;;;;;;;7.20;1.10;;;14.40;91.70;;;;;;5097722;28;20035;-73
2022/05/31 07:45:03;;;;;;;2.38;1.17;;;14.50;91.40;;;;;;5098739;28;20031;-74
2022/05/31 07:47:29;;;;;;;2.97;0.90;;;14.50;91.30;;;;;;5097703;28;20031;-73
2022/05/31 07:49:56;;;;;;;3.55;1.25;;;14.50;91.70;;;;;;5097833;28;20035;-73
2022/05/31 07:52:22;;;;;;;2.08;1.00;;;14.60;91.00;;;;;;5097724;28;20038;-73
2022/05/31 07:54:48;;;;;;;1.45;1.10;;;14.70;90.70;;;;;;5098294;28;20028;-73
2022/05/31 07:59:58;;;;;;;5.20;1.00;;;14.70;91.00;;;;;;5117298;28;20127;-74
2022/05/31 08:02:24;;;;;;;1.63;1.08;;;14.80;90.40;;;;;;5097369;28;20110;-75
2022/05/31 08:04:50;;;;;;;2.67;1.50;;;14.80;90.30;;;;;;5098420;28;20044;-75
2022/05/31 08:07:16;;;;;;;1.95;1.17;;;14.80;90.50;;;;;;5101045;27;20486;-76
2022/05/31 08:09:41;;;;;;;1.52;1.00;;;14.80;90.60;;;;;;5118443;27;20023;-75
2022/05/31 08:12:11;;;;;;;2.25;1.15;;;14.90;90.40;;;;;;5101057;28;20061;-76
2022/05/31 08:14:37;;;;;;;3.13;1.13;;;14.90;90.30;;;;;;5096986;28;20480;-74
2022/05/31 08:17:03;;;;;;;2.15;1.20;;;14.90;90.10;;;;;;5116126;28;20048;-74
2022/05/31 08:19:30;;;;;;;3.65;1.15;;;15.00;90.10;;;;;;5097242;28;20027;-74
2022/05/31 08:21:56;;;;;;;1.95;0.90;;;15.10;89.70;;;;;;5097711;28;20042;-74
2022/05/31 08:24:23;;;;;;;4.18;1.35;;;15.20;89.00;;;;;;5096062;28;20055;-74
2022/05/31 08:26:49;;;;;;;3.38;1.60;;;15.40;88.00;;;;;;5097184;28;20019;-74
2022/05/31 08:29:15;;;;;;;3.92;1.33;;;15.40;87.10;;;;;;5114322;28;20016;-77
2022/05/31 08:31:41;;;;;;;3.03;1.10;;;15.50;87.70;;;;;;5094876;28;20023;-74
2022/05/31 08:34:07;;;;;;;2.83;1.02;;;15.60;87.80;;;;;;5115335;28;20026;-74
2022/05/31 08:36:33;;;;;;;3.35;1.20;;;15.70;87.50;;;;;;5096784;28;20015;-76
2022/05/31 08:39:00;;;;;;;5.85;1.10;;;15.90;87.70;;;;;;5097630;28;20019;-76
2022/05/31 08:41:39;;;;;;;2.72;1.20;;;16.00;87.40;;;;;;5097329;28;20039;-78
2022/05/31 08:44:15;;;;;;;3.65;1.58;;;16.00;87.20;;;;;;5095832;28;20464;-78
2022/05/31 08:46:46;;;;;;;4.97;1.30;;;16.00;87.90;;;;;;5081244;28;20064;-74
2022/05/31 08:51:52;;;;;;;2.13;1.15;;;16.00;87.80;;;;;;5091251;28;20453;-75
2022/05/31 08:53:06;;;;;;;2.38;1.35;;;16.00;87.40;;;;;;5113996;28;20032;-75
2022/05/31 08:58:29;;;;;;;3.25;0.95;;;16.30;87.10;;;;;;5114591;28;20513;-75
2022/05/31 09:00:57;;;;;;;2.10;1.02;;;16.50;86.40;;;;;;5097059;28;20027;-75
2022/05/31 09:03:52;;;;;;;1.98;0.90;;;16.60;84.50;;;;;;5105929;28;20477;-75
2022/05/31 09:06:26;;;;;;;2.78;0.90;;;16.70;83.20;;;;;;5110354;28;20035;-75
2022/05/31 09:09:09;;;;;;;2.63;1.02;;;16.90;83.60;;;;;;5114718;28;20031;-75
2022/05/31 09:11:44;;;;;;;1.85;1.23;;;17.10;81.40;;;;;;5112521;28;20432;-74
2022/05/31 09:14:22;;;;;;;1.48;1.30;;;17.10;81.10;;;;;;5113527;28;20123;-76
2022/05/31 09:16:58;;;;;;;6.63;1.75;;;17.10;81.20;;;;;;5113814;28;20154;-76
2022/05/31 09:19:33;;;;;;;9.10;2.35;;;17.10;79.80;;;;;;5112232;28;20449;-76
2022/05/31 09:22:01;;;;;;;4.13;2.28;;;17.20;79.90;;;;;;5111592;28;20050;-76
2022/05/31 09:24:28;;;;;;;5.38;2.55;;;17.10;79.00;;;;;;5112292;28;20031;-75
2022/05/31 09:27:09;;;;;;;4.32;2.20;;;17.10;79.30;;;;;;5113108;28;20102;-77
2022/05/31 09:30:06;;;;;;;4.53;1.90;;;17.10;76.80;;;;;;5113895;28;20451;-78
2022/05/31 09:32:38;;;;;;;1.27;1.00;;;17.00;76.60;;;;;;5109517;28;20031;-77
2022/05/31 09:35:35;;;;;;;3.75;1.10;;;17.10;74.50;;;;;;5114500;28;20042;-76
2022/05/31 09:38:18;;;;;;;5.88;1.48;;;17.00;74.90;;;;;;5112129;28;20028;-76
2022/05/31 09:41:26;;;;;;;4.15;1.10;;;17.10;76.80;;;;;;5092925;28;20027;-76
2022/05/31 09:43:57;;;;;;;3.13;1.30;;;17.10;76.50;;;;;;5107525;28;20036;-76
2022/05/31 09:46:40;;;;;;;2.47;1.02;;;17.20;78.20;;;;;;5101938;28;20071;-75
2022/05/31 09:49:24;;;;;;;1.90;1.02;;;17.50;74.10;;;;;;5114521;28;20023;-75
2022/05/31 09:51:51;;;;;;;1.10;1.00;;;17.50;74.10;;;;;;5112114;28;20026;-77
2022/05/31 09:57:11;;;;;;;3.30;0.90;;;17.70;74.50;;;;;;5115125;28;20498;-79
2022/05/31 09:59:49;;;;;;;2.33;1.13;;;17.80;74.70;;;;;;5071999;28;20284;-80
2022/05/31 10:02:30;;;;;;;3.42;1.08;;;17.90;71.50;;;;;;5068104;28;20040;-80
2022/05/31 10:05:36;;;;;;;4.85;1.00;;;17.90;68.80;;;;;;5071048;28;20486;-79
2022/05/31 10:08:29;;;;;;;4.82;0.90;;;18.00;68.60;;;;;;5017094;28;20116;-78
2022/05/31 10:10:56;;;;;;;1.08;0.77;;;18.00;68.90;;;;;;5047761;28;20100;-78
2022/05/31 10:13:37;;;;;;;2.47;1.10;;;18.00;67.20;;;;;;5070482;28;20063;-79
2022/05/31 10:16:29;;;;;;;4.93;1.48;;;18.00;67.60;;;;;;5054713;28;20550;-80
2022/05/31 10:19:05;;;;;;;1.90;1.25;;;18.00;69.40;;;;;;5053804;28;20035;-79
2022/05/31 10:21:40;;;;;;;2.25;0.85;;;18.00;69.40;;;;;;5054036;28;20036;-79
2022/05/31 10:24:07;;;;;;;1.75;0.95;;;18.00;69.80;;;;;;5053548;28;20075;-77
2022/05/31 10:26:38;;;;;;;1.83;1.00;;;18.10;69.30;;;;;;5069290;28;20028;-75
2022/05/31 10:29:33;;;;;;;3.60;1.08;;;18.20;70.40;;;;;;5053223;28;20401;-75
2022/05/31 10:31:59;;;;;;;3.17;1.10;;;18.30;69.80;;;;;;5054989;28;20029;-75
2022/05/31 10:34:44;;;;;;;4.90;1.20;;;18.30;70.60;;;;;;5072859;28;20035;-75
2022/05/31 10:37:25;;;;;;;3.42;1.27;;;18.30;70.70;;;;;;5073343;28;20067;-76
2022/05/31 10:40:09;;;;;;;1.63;0.93;;;18.40;69.70;;;;;;5073559;28;20086;-76
2022/05/31 10:42:42;;;;;;;2.83;1.10;;;18.60;68.20;;;;;;5068655;28;20036;-76
2022/05/31 10:45:27;;;;;;;3.00;1.10;;;18.70;67.50;;;;;;5070203;28;20417;-76
2022/05/31 10:47:57;;;;;;;3.63;0.70;;;18.80;67.60;;;;;;5073197;28;20123;-76
2022/05/31 10:50:33;;;;;;;2.15;0.90;;;18.90;66.90;;;;;;5090288;28;20474;-76
2022/05/31 10:53:22;;;;;;;1.40;0.88;;;19.00;66.50;;;;;;5068604;28;20527;-79
2022/05/31 10:56:03;;;;;;;2.58;1.30;;;19.10;65.80;;;;;;5074594;28;20066;-76
2022/05/31 10:58:41;;;;;;;8.10;3.97;;;19.10;65.00;;;;;;5073500;28;20077;-76
2022/05/31 11:01:21;;;;;;;2.88;1.67;;;19.20;64.70;;;;;;5091256;28;20067;-77
2022/05/31 11:04:05;;;;;;;0.93;0.70;;;19.30;64.10;;;;;;5098758;28;20058;-76
2022/05/31 11:06:46;;;;;;;2.97;1.10;;;19.40;63.60;;;;;;5110851;28;20464;-75
2022/05/31 11:12:43;;;;;;;2.00;0.73;;;19.50;64.50;;;;;;5111920;28;20046;-76
2022/05/31 11:15:33;;;;;;;1.75;1.10;;;19.60;62.50;;;;;;5110767;28;20027;-75
2022/05/31 11:18:15;;;;;;;2.05;1.00;;;19.50;62.40;;;;;;5111659;28;20030;-77
2022/05/31 11:21:03;;;;;;;2.15;0.75;;;19.60;61.70;;;;;;5095945;28;20069;-76
2022/05/31 11:23:50;;;;;;;1.67;0.77;;;19.70;60.60;;;;;;5102280;28;20043;-76
2022/05/31 11:26:27;;;;;;;2.08;0.70;;;19.80;59.20;;;;;;5104095;28;20028;-79
2022/05/31 11:29:20;;;;;;;2.35;0.70;;;19.90;60.30;;;;;;5111944;28;20031;-77
2022/05/31 11:32:11;;;;;;;2.40;0.82;;;20.00;59.80;;;;;;5102701;28;20143;-76
2022/05/31 11:34:56;;;;;;;1.15;0.80;;;20.10;58.80;;;;;;5093812;28;20028;-76
2022/05/31 11:37:30;;;;;;;2.60;1.00;;;20.20;59.10;;;;;;5111139;28;20063;-77
2022/05/31 11:40:13;;;;;;;1.15;1.00;;;20.30;59.30;;;;;;5111326;28;20035;-78
2022/05/31 11:43:17;;;;;;;1.02;0.80;;;20.40;59.10;;;;;;5111013;28;20065;-77
2022/05/31 11:46:01;;;;;;;3.05;0.93;;;20.60;59.20;;;;;;5113169;28;20019;-78
2022/05/31 11:48:36;;;;;;;1.98;0.70;;;20.70;57.80;;;;;;5094309;28;20027;-78
2022/05/31 11:51:34;;;;;;;2.10;0.90;;;20.80;56.70;;;;;;5094561;28;20465;-77
2022/05/31 11:54:14;;;;;;;1.83;0.70;;;20.80;55.60;;;;;;5076796;28;20102;-77
2022/05/31 11:57:06;;;;;;;2.63;0.60;;;20.90;54.50;;;;;;5094582;28;20028;-77
2022/05/31 12:00:04;;;;;;;2.55;0.85;;;21.00;53.70;;;;;;5107500;28;20035;-77
2022/05/31 12:02:39;;;;;;;1.88;1.00;;;21.10;52.20;;;;;;5074962;28;20037;-76
2022/05/31 12:05:38;;;;;;;1.30;0.73;;;21.20;53.70;;;;;;5111406;28;20058;-77
2022/05/31 12:08:14;;;;;;;2.08;0.50;;;21.40;50.80;;;;;;5104944;28;20032;-77
2022/05/31 12:10:53;;;;;;;2.35;0.60;;;21.70;49.90;;;;;;5079860;28;20476;-76
2022/05/31 12:13:20;;;;;;;3.92;1.00;;;21.90;50.90;;;;;;5084485;28;20119;-76
2022/05/31 12:15:51;;;;;;;1.02;0.50;;;22.10;50.70;;;;;;5110859;28;20019;-76
2022/05/31 12:18:39;;;;;;;1.75;0.70;;;22.30;48.60;;;;;;5110699;28;20038;-78
2022/05/31 12:21:33;;;;;;;3.53;0.70;;;22.40;47.80;;;;;;5109306;28;20028;-75
2022/05/31 12:24:14;;;;;;;3.92;0.60;;;22.50;47.70;;;;;;5112851;28;20031;-78
2022/05/31 12:26:45;;;;;;;1.50;0.57;;;22.50;46.60;;;;;;5113506;28;20076;-76
2022/05/31 12:29:39;;;;;;;2.78;0.70;;;22.50;46.90;;;;;;5115069;28;20019;-76
2022/05/31 12:32:38;;;;;;;1.80;0.70;;;22.50;46.80;;;;;;5104307;28;20480;-75
2022/05/31 12:35:07;;;;;;;1.50;0.73;;;22.60;47.70;;;;;;5104375;28;20020;-75
2022/05/31 12:38:02;;;;;;;0.95;0.70;;;22.90;47.90;;;;;;5113919;28;20115;-78
2022/05/31 12:40:34;;;;;;;1.20;0.60;;;22.90;47.20;;;;;;5089546;28;20058;-77
2022/05/31 12:43:34;;;;;;;3.08;0.70;;;23.10;46.90;;;;;;5098862;28;20491;-79
2022/05/31 12:46:18;;;;;;;2.25;0.68;;;23.10;46.20;;;;;;5114693;28;20019;-78
2022/05/31 12:48:59;;;;;;;0.77;0.60;;;23.20;46.90;;;;;;5100306;28;20110;-78
2022/05/31 12:51:25;;;;;;;0.95;0.60;;;23.20;45.40;;;;;;5115937;28;20026;-79
2022/05/31 12:53:55;;;;;;;1.38;0.70;;;23.20;45.80;;;;;;5115069;28;20036;-75
2022/05/31 12:56:34;;;;;;;1.03;0.50;;;23.30;45.50;;;;;;5104093;28;20031;-76
2022/05/31 12:59:01;;;;;;;1.75;0.60;;;23.50;45.80;;;;;;5089205;28;20020;-75
2022/05/31 13:01:26;;;;;;;129.80;85.15;;;23.60;46.60;;;;;;5095907;28;20038;-78
2022/05/31 13:03:56;;;;;;;74.25;37.28;;;23.70;47.20;;;;;;5094112;28;20051;-80
2022/05/31 13:06:41;;;;;;;30.60;15.45;;;23.80;46.10;;;;;;5116503;28;20026;-79
2022/05/31 13:09:34;;;;;;;5.78;3.30;;;23.90;44.80;;;;;;5116071;28;20031;-79
2022/05/31 13:20:59;;;;;;;2.05;0.70;;;24.90;41.80;;;;;;5081903;28;20057;-81
2022/05/31 13:23:30;;;;;;;1.02;0.70;;;25.10;41.80;;;;;;5077747;28;20067;-81
2022/05/31 13:26:15;;;;;;;1.60;0.70;;;25.30;42.60;;;;;;5077545;28;20036;-82
2022/05/31 13:29:02;;;;;;;0.80;0.60;;;25.40;40.90;;;;;;5076304;28;20122;-81
2022/05/31 13:31:30;;;;;;;1.30;0.68;;;25.60;40.60;;;;;;5080667;28;20028;-82
2022/05/31 13:34:06;;;;;;;1.80;0.57;;;25.70;40.20;;;;;;5077695;28;20573;-82
2022/05/31 13:36:44;;;;;;;1.08;0.65;;;25.30;40.20;;;;;;5092167;28;20089;-79
2022/05/31 13:39:13;;;;;;;1.67;0.70;;;25.00;40.60;;;;;;5076723;28;20043;-79
2022/05/31 13:41:49;;;;;;;1.20;0.60;;;24.70;41.40;;;;;;5072051;28;20111;-77